createdAt,value
2023-02-07T00:00:00.309Z,18.37
2023-02-07T00:01:23.494Z,18.36
2023-02-07T00:02:45.468Z,18.34
2023-02-07T00:04:08.785Z,18.34
2023-02-07T00:05:29.617Z,18.34
2023-02-07T00:06:50.990Z,18.33
2023-02-07T00:08:14.990Z,18.32
2023-02-07T00:09:36.258Z,18.33
2023-02-07T00:11:04.576Z,18.35
2023-02-07T00:12:25.780Z,18.32
2023-02-07T00:13:49.207Z,18.33
2023-02-07T00:15:10.958Z,18.32
2023-02-07T00:16:32.457Z,18.31
2023-02-07T00:17:53.225Z,18.30
2023-02-07T00:19:13.963Z,18.31
2023-02-07T00:20:35.250Z,18.31
2023-02-07T00:21:59.566Z,18.31
2023-02-07T00:23:20.799Z,18.31
2023-02-07T00:24:44.411Z,18.35
2023-02-07T00:26:12.909Z,18.35
2023-02-07T00:27:36.493Z,18.35
2023-02-07T00:28:57.805Z,18.34
2023-02-07T00:30:19.302Z,18.29
2023-02-07T00:31:40.768Z,18.34
2023-02-07T00:33:02.458Z,18.34
2023-02-07T00:34:23.301Z,18.36
2023-02-07T00:35:44.459Z,18.34
2023-02-07T00:37:08.418Z,18.33
2023-02-07T00:38:29.671Z,18.28
2023-02-07T00:39:50.815Z,18.29
2023-02-07T00:41:14.504Z,18.29
2023-02-07T00:42:35.370Z,18.33
2023-02-07T00:43:56.458Z,18.29
2023-02-07T00:45:20.036Z,18.32
2023-02-07T00:46:41.557Z,18.29
2023-02-07T00:48:05.832Z,18.24
2023-02-07T00:49:29.652Z,18.29
2023-02-07T00:50:51.791Z,18.26
2023-02-07T00:52:12.621Z,18.28
2023-02-07T00:53:33.731Z,18.28
2023-02-07T00:54:56.192Z,18.27
2023-02-07T00:56:21.308Z,18.28
2023-02-07T00:57:42.664Z,18.28
2023-02-07T00:59:03.468Z,18.31
2023-02-07T01:00:24.548Z,18.28
2023-02-07T01:01:46.035Z,18.30
2023-02-07T01:03:07.052Z,18.28
2023-02-07T01:04:33.733Z,18.28
2023-02-07T01:05:54.861Z,18.30
2023-02-07T01:07:20.095Z,18.27
2023-02-07T01:08:43.146Z,18.31
2023-02-07T01:10:05.338Z,18.29
2023-02-07T01:11:29.922Z,18.27
2023-02-07T01:12:52.144Z,18.26
2023-02-07T01:14:13.527Z,18.29
2023-02-07T01:15:37.366Z,18.27
2023-02-07T01:16:58.740Z,18.24
2023-02-07T01:18:19.793Z,18.22
2023-02-07T01:19:43.813Z,18.26
2023-02-07T01:21:14.287Z,18.27
2023-02-07T01:22:36.369Z,18.29
2023-02-07T01:23:57.650Z,18.29
2023-02-07T01:25:21.466Z,18.25
2023-02-07T01:26:45.138Z,18.28
2023-02-07T01:28:09.105Z,18.26
2023-02-07T01:29:30.027Z,18.27
2023-02-07T01:30:51.107Z,18.28
2023-02-07T01:32:12.123Z,18.28
2023-02-07T01:33:33.317Z,18.28
2023-02-07T01:34:54.820Z,18.25
2023-02-07T01:36:16.569Z,18.25
2023-02-07T01:37:38.324Z,18.27
2023-02-07T01:38:59.137Z,18.24
2023-02-07T01:40:20.577Z,18.27
2023-02-07T01:41:44.565Z,18.24
2023-02-07T01:43:17.000Z,18.30
2023-02-07T01:44:59.788Z,18.28
2023-02-07T01:46:21.185Z,18.26
2023-02-07T01:47:42.379Z,18.24
2023-02-07T01:49:05.061Z,18.22
2023-02-07T01:50:26.516Z,18.27
2023-02-07T01:51:56.393Z,18.20
2023-02-07T01:53:21.651Z,18.22
2023-02-07T01:54:45.550Z,18.22
2023-02-07T01:56:29.419Z,18.24
2023-02-07T01:57:56.717Z,18.26
2023-02-07T01:59:18.276Z,18.22
2023-02-07T02:00:39.987Z,18.20
2023-02-07T02:02:04.541Z,18.20
2023-02-07T02:03:28.139Z,18.22
2023-02-07T02:04:52.104Z,18.21
2023-02-07T02:06:14.100Z,18.21
2023-02-07T02:07:38.403Z,18.19
2023-02-07T02:09:01.599Z,18.21
2023-02-07T02:10:28.227Z,18.22
2023-02-07T02:12:11.827Z,18.26
2023-02-07T02:13:43.735Z,18.28
2023-02-07T02:15:20.680Z,18.24
2023-02-07T02:16:48.419Z,18.26
2023-02-07T02:18:23.573Z,18.22
2023-02-07T02:20:15.264Z,18.26
2023-02-07T02:22:05.705Z,18.25
2023-02-07T02:23:41.501Z,18.25
2023-02-07T02:25:26.501Z,18.23
2023-02-07T02:26:57.840Z,18.25
2023-02-07T02:28:52.826Z,18.28
2023-02-07T02:30:43.854Z,18.22
2023-02-07T02:32:40.377Z,18.23
2023-02-07T02:34:09.902Z,18.24
2023-02-07T02:35:40.263Z,18.21
2023-02-07T02:37:14.276Z,18.17
2023-02-07T02:38:48.063Z,18.20
2023-02-07T02:40:14.102Z,18.19
2023-02-07T02:41:40.513Z,18.20
2023-02-07T02:43:09.105Z,18.21
2023-02-07T02:44:38.196Z,18.22
2023-02-07T02:46:04.009Z,18.17
2023-02-07T02:47:29.603Z,18.20
2023-02-07T02:48:53.238Z,18.16
2023-02-07T02:50:21.904Z,18.20
2023-02-07T02:51:43.151Z,18.18
2023-02-07T02:53:06.783Z,18.18
2023-02-07T02:54:31.417Z,18.18
2023-02-07T02:56:31.283Z,18.19
2023-02-07T02:58:05.242Z,18.21
2023-02-07T02:59:51.354Z,18.23
2023-02-07T03:01:23.750Z,18.22
2023-02-07T03:02:58.629Z,18.21
2023-02-07T03:04:46.816Z,18.21
2023-02-07T03:06:21.651Z,18.22
2023-02-07T03:07:54.280Z,18.17
2023-02-07T03:09:25.088Z,18.16
2023-02-07T03:10:55.866Z,18.19
2023-02-07T03:12:25.394Z,18.22
2023-02-07T03:13:56.029Z,18.19
2023-02-07T03:15:24.500Z,18.15
2023-02-07T03:16:55.676Z,18.15
2023-02-07T03:18:21.937Z,18.15
2023-02-07T03:19:52.236Z,18.20
2023-02-07T03:21:24.034Z,18.21
2023-02-07T03:22:47.387Z,18.12
2023-02-07T03:24:13.549Z,18.16
2023-02-07T03:25:36.812Z,18.10
2023-02-07T03:27:01.325Z,18.08
2023-02-07T03:28:23.834Z,18.04
2023-02-07T03:29:52.564Z,17.96
2023-02-07T03:31:17.637Z,18.02
2023-02-07T03:32:42.248Z,18.09
2023-02-07T03:34:09.080Z,18.16
2023-02-07T03:35:38.180Z,18.20
2023-02-07T03:37:12.386Z,18.29
2023-02-07T03:38:33.269Z,18.31
2023-02-07T03:39:54.519Z,18.31
2023-02-07T03:41:21.480Z,18.33
2023-02-07T03:42:46.911Z,18.32
2023-02-07T03:44:10.963Z,18.35
2023-02-07T03:45:35.328Z,18.33
2023-02-07T03:46:57.629Z,18.36
2023-02-07T03:48:19.040Z,18.35
2023-02-07T03:49:40.100Z,18.36
2023-02-07T03:51:01.317Z,18.34
2023-02-07T03:52:27.180Z,18.35
2023-02-07T03:53:51.175Z,18.34
2023-02-07T03:55:12.774Z,18.35
2023-02-07T03:56:34.289Z,18.34
2023-02-07T03:57:55.616Z,18.35
2023-02-07T03:59:16.509Z,18.35
2023-02-07T04:00:39.736Z,18.36
2023-02-07T04:02:00.627Z,18.36
2023-02-07T04:03:21.767Z,18.33
2023-02-07T04:04:43.292Z,18.35
2023-02-07T04:06:05.095Z,18.32
2023-02-07T04:07:28.986Z,18.34
2023-02-07T04:08:50.471Z,18.33
2023-02-07T04:10:14.882Z,18.33
2023-02-07T04:11:35.996Z,18.31
2023-02-07T04:12:59.810Z,18.28
2023-02-07T04:14:21.111Z,18.26
2023-02-07T04:15:42.402Z,18.28
2023-02-07T04:17:06.108Z,18.28
2023-02-07T04:18:29.920Z,18.26
2023-02-07T04:19:53.454Z,18.23
2023-02-07T04:21:14.218Z,18.25
2023-02-07T04:22:37.868Z,18.26
2023-02-07T04:23:59.160Z,18.27
2023-02-07T04:25:20.367Z,18.10
2023-02-07T04:26:46.252Z,18.09
2023-02-07T04:28:07.437Z,18.15
2023-02-07T04:29:30.708Z,18.10
2023-02-07T04:30:51.990Z,18.16
2023-02-07T04:32:13.090Z,18.18
2023-02-07T04:33:34.046Z,18.19
2023-02-07T04:34:55.048Z,18.20
2023-02-07T04:36:16.401Z,18.08
2023-02-07T04:37:42.767Z,18.08
2023-02-07T04:39:06.153Z,18.15
2023-02-07T04:40:27.107Z,18.20
2023-02-07T04:41:48.004Z,18.25
2023-02-07T04:43:09.091Z,18.23
2023-02-07T04:44:30.562Z,18.30
2023-02-07T04:45:51.866Z,18.33
2023-02-07T04:47:13.274Z,18.36
2023-02-07T04:48:36.362Z,18.38
2023-02-07T04:49:57.647Z,18.39
2023-02-07T04:51:18.554Z,18.44
2023-02-07T04:52:42.315Z,18.44
2023-02-07T04:54:04.104Z,18.47
2023-02-07T04:55:27.432Z,18.48
2023-02-07T04:56:48.302Z,18.53
2023-02-07T04:58:09.747Z,18.50
2023-02-07T04:59:31.266Z,18.49
2023-02-07T05:00:52.978Z,18.50
2023-02-07T05:02:14.003Z,18.54
2023-02-07T05:03:34.813Z,18.55
2023-02-07T05:04:55.588Z,18.57
2023-02-07T05:06:19.398Z,18.58
2023-02-07T05:07:43.251Z,18.56
2023-02-07T05:09:04.391Z,18.54
2023-02-07T05:10:25.399Z,18.54
2023-02-07T05:11:46.230Z,18.59
2023-02-07T05:13:07.533Z,18.59
2023-02-07T05:14:28.654Z,18.57
2023-02-07T05:15:49.501Z,18.62
2023-02-07T05:17:10.583Z,18.53
2023-02-07T05:18:34.257Z,18.60
2023-02-07T05:19:55.467Z,18.60
2023-02-07T05:21:16.358Z,18.62
2023-02-07T05:22:42.068Z,18.68
2023-02-07T05:24:03.450Z,18.58
2023-02-07T05:25:27.580Z,18.62
2023-02-07T05:26:48.553Z,18.60
2023-02-07T05:28:12.006Z,18.60
2023-02-07T05:29:36.104Z,18.60
2023-02-07T05:30:56.919Z,18.65
2023-02-07T05:32:20.424Z,18.67
2023-02-07T05:33:44.186Z,18.62
2023-02-07T05:35:06.304Z,18.67
2023-02-07T05:36:30.412Z,18.67
2023-02-07T05:37:53.987Z,18.63
2023-02-07T05:39:15.203Z,18.64
2023-02-07T05:40:37.619Z,18.66
2023-02-07T05:42:01.080Z,18.63
2023-02-07T05:43:21.986Z,18.60
2023-02-07T05:44:45.456Z,18.57
2023-02-07T05:46:06.985Z,18.53
2023-02-07T05:47:30.679Z,18.49
2023-02-07T05:48:51.723Z,18.53
2023-02-07T05:50:13.126Z,18.48
2023-02-07T05:51:34.476Z,18.49
2023-02-07T05:53:02.663Z,18.51
2023-02-07T05:54:26.359Z,18.46
2023-02-07T05:55:51.448Z,18.47
2023-02-07T05:57:12.567Z,18.37
2023-02-07T05:58:36.505Z,18.40
2023-02-07T05:59:57.684Z,18.41
2023-02-07T06:01:21.736Z,18.41
2023-02-07T06:02:43.661Z,18.43
2023-02-07T06:04:07.337Z,18.50
2023-02-07T06:05:28.216Z,18.37
2023-02-07T06:06:49.276Z,18.36
2023-02-07T06:08:16.106Z,18.41
2023-02-07T06:09:39.601Z,18.41
2023-02-07T06:11:00.360Z,18.45
2023-02-07T06:12:21.135Z,18.35
2023-02-07T06:13:41.983Z,18.46
2023-02-07T06:15:05.697Z,18.48
2023-02-07T06:16:26.959Z,18.47
2023-02-07T06:17:47.727Z,18.46
2023-02-07T06:19:11.930Z,18.50
2023-02-07T06:20:33.116Z,18.43
2023-02-07T06:21:54.530Z,18.46
2023-02-07T06:23:17.941Z,18.49
2023-02-07T06:24:39.727Z,18.42
2023-02-07T06:26:01.079Z,18.47
2023-02-07T06:27:22.282Z,18.52
2023-02-07T06:28:43.813Z,18.50
2023-02-07T06:30:04.922Z,18.51
2023-02-07T06:31:26.271Z,18.54
2023-02-07T06:32:47.247Z,18.54
2023-02-07T06:34:11.215Z,18.50
2023-02-07T06:35:32.485Z,18.53
2023-02-07T06:36:56.204Z,18.53
2023-02-07T06:38:19.656Z,18.53
2023-02-07T06:39:43.619Z,18.50
2023-02-07T06:41:04.685Z,18.50
2023-02-07T06:42:26.201Z,18.55
2023-02-07T06:43:47.363Z,18.48
2023-02-07T06:45:09.433Z,18.43
2023-02-07T06:46:33.077Z,18.42
2023-02-07T06:47:54.369Z,18.43
2023-02-07T06:49:15.864Z,18.52
2023-02-07T06:50:37.172Z,18.53
2023-02-07T06:52:00.562Z,18.44
2023-02-07T06:53:24.657Z,18.49
2023-02-07T06:54:48.006Z,18.50
2023-02-07T06:56:11.739Z,18.51
2023-02-07T06:57:32.529Z,18.46
2023-02-07T06:58:53.624Z,18.51
2023-02-07T07:00:15.421Z,18.58
2023-02-07T07:01:36.448Z,18.53
2023-02-07T07:02:58.143Z,18.50
2023-02-07T07:04:21.412Z,18.53
2023-02-07T07:05:43.612Z,18.55
2023-02-07T07:07:04.977Z,18.47
2023-02-07T07:08:28.454Z,18.49
2023-02-07T07:09:50.012Z,18.52
2023-02-07T07:11:13.183Z,18.45
2023-02-07T07:12:34.077Z,18.46
2023-02-07T07:13:57.361Z,18.43
2023-02-07T07:15:18.547Z,18.42
2023-02-07T07:16:39.468Z,18.44
2023-02-07T07:18:00.792Z,18.40
2023-02-07T07:19:24.489Z,18.41
2023-02-07T07:20:45.735Z,18.40
2023-02-07T07:22:09.807Z,18.38
2023-02-07T07:23:34.040Z,18.33
2023-02-07T07:24:55.167Z,18.38
2023-02-07T07:26:16.468Z,18.39
2023-02-07T07:27:40.108Z,18.33
2023-02-07T07:29:01.454Z,18.37
2023-02-07T07:30:25.592Z,18.33
2023-02-07T07:31:47.466Z,18.29
2023-02-07T07:33:08.883Z,18.37
2023-02-07T07:34:32.765Z,18.48
2023-02-07T07:35:54.879Z,18.45
2023-02-07T07:37:16.084Z,18.35
2023-02-07T07:38:40.075Z,18.34
2023-02-07T07:40:04.347Z,18.37
2023-02-07T07:41:28.441Z,18.35
2023-02-07T07:42:49.491Z,18.35
2023-02-07T07:44:28.616Z,18.37
2023-02-07T07:45:52.949Z,18.29
2023-02-07T07:47:14.123Z,18.35
2023-02-07T07:48:34.941Z,18.27
2023-02-07T07:49:56.209Z,18.26
2023-02-07T07:51:17.142Z,18.29
2023-02-07T07:52:37.927Z,18.35
2023-02-07T07:54:04.137Z,18.39
2023-02-07T07:55:27.987Z,18.36
2023-02-07T07:56:49.530Z,18.41
2023-02-07T07:58:10.715Z,18.39
2023-02-07T07:59:32.200Z,18.38
2023-02-07T08:00:53.517Z,18.39
2023-02-07T08:02:18.077Z,18.35
2023-02-07T08:03:39.282Z,18.36
2023-02-07T08:05:00.215Z,18.19
2023-02-07T08:06:24.109Z,14.43
2023-02-07T08:07:45.396Z,11.57
2023-02-07T08:09:09.085Z,9.35
2023-02-07T08:10:30.348Z,9.84
2023-02-07T08:11:51.320Z,10.54
2023-02-07T08:13:12.203Z,11.39
2023-02-07T08:14:34.574Z,12.19
2023-02-07T08:15:55.429Z,12.90
2023-02-07T08:17:18.962Z,13.56
2023-02-07T08:18:40.398Z,14.09
2023-02-07T08:20:01.823Z,14.57
2023-02-07T08:21:26.015Z,15.00
2023-02-07T08:22:47.086Z,15.38
2023-02-07T08:24:10.581Z,15.73
2023-02-07T08:25:32.025Z,16.04
2023-02-07T08:26:52.883Z,16.32
2023-02-07T08:28:14.584Z,16.54
2023-02-07T08:29:35.443Z,16.75
2023-02-07T08:31:00.003Z,16.95
2023-02-07T08:32:21.326Z,17.10
2023-02-07T08:33:42.748Z,17.34
2023-02-07T08:35:03.675Z,17.52
2023-02-07T08:36:25.316Z,17.70
2023-02-07T08:37:46.794Z,17.84
2023-02-07T08:39:10.716Z,17.96
2023-02-07T08:40:32.093Z,18.05
2023-02-07T08:41:52.833Z,18.17
2023-02-07T08:43:14.136Z,18.23
2023-02-07T08:44:35.035Z,18.38
2023-02-07T08:45:56.122Z,18.47
2023-02-07T08:47:17.995Z,18.60
2023-02-07T08:48:40.200Z,18.64
2023-02-07T08:50:05.769Z,18.75
2023-02-07T08:51:26.830Z,18.87
2023-02-07T08:52:50.503Z,18.92
2023-02-07T08:54:14.320Z,18.98
2023-02-07T08:55:35.932Z,19.01
2023-02-07T08:56:57.284Z,19.07
2023-02-07T08:58:18.588Z,19.05
2023-02-07T08:59:43.063Z,19.11
2023-02-07T09:01:06.730Z,19.11
2023-02-07T09:02:28.290Z,19.16
2023-02-07T09:03:54.641Z,19.23
2023-02-07T09:05:15.973Z,19.18
2023-02-07T09:06:37.491Z,19.26
2023-02-07T09:07:58.974Z,19.29
2023-02-07T09:09:22.479Z,19.27
2023-02-07T09:10:45.983Z,19.32
2023-02-07T09:12:09.701Z,19.28
2023-02-07T09:13:30.867Z,19.22
2023-02-07T09:14:51.685Z,19.31
2023-02-07T09:16:14.902Z,19.33
2023-02-07T09:17:36.426Z,19.28
2023-02-07T09:19:00.564Z,19.35
2023-02-07T09:20:24.082Z,19.41
2023-02-07T09:21:45.591Z,19.32
2023-02-07T09:23:06.836Z,19.33
2023-02-07T09:24:30.821Z,19.34
2023-02-07T09:25:54.728Z,19.36
2023-02-07T09:27:16.221Z,19.41
2023-02-07T09:28:37.282Z,19.35
2023-02-07T09:29:58.133Z,19.43
2023-02-07T09:31:19.524Z,19.45
2023-02-07T09:32:46.299Z,19.49
2023-02-07T09:34:07.563Z,19.52
2023-02-07T09:35:28.942Z,19.48
2023-02-07T09:36:49.990Z,19.51
2023-02-07T09:38:15.129Z,19.47
2023-02-07T09:39:39.202Z,19.46
2023-02-07T09:41:00.521Z,19.40
2023-02-07T09:42:30.611Z,19.49
2023-02-07T09:44:00.879Z,19.48
2023-02-07T09:45:25.310Z,19.52
2023-02-07T09:46:54.014Z,19.54
2023-02-07T09:48:20.658Z,19.58
2023-02-07T09:49:48.914Z,19.55
2023-02-07T09:51:11.661Z,19.61
2023-02-07T09:52:37.176Z,19.59
2023-02-07T09:54:04.147Z,19.54
2023-02-07T09:55:34.457Z,19.63
2023-02-07T09:57:03.134Z,19.62
2023-02-07T09:58:39.795Z,19.65
2023-02-07T10:00:07.431Z,19.63
2023-02-07T10:01:34.485Z,19.63
2023-02-07T10:02:59.458Z,19.69
2023-02-07T10:04:29.737Z,19.67
2023-02-07T10:06:01.480Z,19.68
2023-02-07T10:07:24.722Z,19.68
2023-02-07T10:08:54.721Z,19.69
2023-02-07T10:10:17.010Z,19.72
2023-02-07T10:11:51.728Z,19.70
2023-02-07T10:13:39.045Z,19.75
2023-02-07T10:15:27.768Z,19.77
2023-02-07T10:17:05.510Z,19.79
2023-02-07T10:18:40.179Z,19.81
2023-02-07T10:20:24.748Z,19.85
2023-02-07T10:21:58.535Z,19.76
2023-02-07T10:23:37.019Z,19.81
2023-02-07T10:25:11.809Z,19.88
2023-02-07T10:26:37.254Z,19.79
2023-02-07T10:28:15.232Z,19.81
2023-02-07T10:29:54.766Z,19.87
2023-02-07T10:31:16.694Z,19.89
2023-02-07T10:32:39.373Z,19.94
2023-02-07T10:34:10.691Z,19.93
2023-02-07T10:35:33.183Z,19.99
2023-02-07T10:36:58.167Z,20.00
2023-02-07T10:38:27.897Z,19.93
2023-02-07T10:40:01.833Z,19.94
2023-02-07T10:41:27.045Z,19.98
2023-02-07T10:42:54.532Z,19.97
2023-02-07T10:44:19.911Z,19.95
2023-02-07T10:45:42.504Z,19.98
2023-02-07T10:47:05.965Z,19.99
2023-02-07T10:48:27.875Z,20.00
2023-02-07T10:49:51.852Z,20.01
2023-02-07T10:51:24.888Z,20.08
2023-02-07T10:52:50.866Z,20.06
2023-02-07T10:54:16.621Z,20.00
2023-02-07T10:55:41.863Z,20.09
2023-02-07T10:57:03.284Z,20.06
2023-02-07T10:58:24.875Z,20.09
2023-02-07T10:59:49.582Z,20.13
2023-02-07T11:01:19.042Z,20.14
2023-02-07T11:02:49.052Z,20.17
2023-02-07T11:04:24.001Z,20.24
2023-02-07T11:05:53.889Z,20.22
2023-02-07T11:07:15.905Z,20.21
2023-02-07T11:08:37.412Z,20.24
2023-02-07T11:10:15.675Z,20.22
2023-02-07T11:11:37.119Z,20.27
2023-02-07T11:13:01.929Z,20.29
2023-02-07T11:14:26.898Z,20.35
2023-02-07T11:15:55.380Z,20.37
2023-02-07T11:17:21.346Z,20.39
2023-02-07T11:18:45.766Z,20.41
2023-02-07T11:20:17.273Z,20.50
2023-02-07T11:21:42.593Z,20.47
2023-02-07T11:23:14.050Z,20.51
2023-02-07T11:24:36.985Z,20.57
2023-02-07T11:25:58.336Z,20.57
2023-02-07T11:27:22.469Z,20.58
2023-02-07T11:28:43.926Z,20.59
2023-02-07T11:30:09.063Z,20.61
2023-02-07T11:31:36.083Z,20.64
2023-02-07T11:33:01.231Z,20.69
2023-02-07T11:34:36.188Z,20.66
2023-02-07T11:36:10.412Z,20.67
2023-02-07T11:37:36.008Z,20.70
2023-02-07T11:38:59.503Z,20.75
2023-02-07T11:40:24.546Z,20.77
2023-02-07T11:41:54.668Z,20.87
2023-02-07T11:43:20.265Z,20.87
2023-02-07T11:44:46.689Z,20.92
2023-02-07T11:46:10.893Z,21.02
2023-02-07T11:47:37.321Z,20.99
2023-02-07T11:49:01.147Z,21.00
2023-02-07T11:50:25.866Z,21.00
2023-02-07T11:51:51.837Z,21.05
2023-02-07T11:53:22.867Z,21.05
2023-02-07T11:54:51.009Z,21.07
2023-02-07T11:56:23.006Z,21.03
2023-02-07T11:57:46.414Z,21.07
2023-02-07T11:59:14.068Z,21.13
2023-02-07T12:00:38.878Z,21.11
2023-02-07T12:02:17.068Z,21.12
2023-02-07T12:03:49.092Z,21.19
2023-02-07T12:05:19.799Z,21.24
2023-02-07T12:06:47.074Z,21.09
2023-02-07T12:08:14.353Z,21.18
2023-02-07T12:09:41.202Z,21.12
2023-02-07T12:11:10.520Z,21.12
2023-02-07T12:12:39.255Z,21.22
2023-02-07T12:14:08.102Z,21.17
2023-02-07T12:15:38.061Z,21.29
2023-02-07T12:17:01.075Z,21.29
2023-02-07T12:18:28.410Z,21.24
2023-02-07T12:19:58.256Z,21.30
2023-02-07T12:21:24.541Z,21.24
2023-02-07T12:23:04.801Z,21.20
2023-02-07T12:24:38.426Z,21.33
2023-02-07T12:26:05.726Z,21.38
2023-02-07T12:27:35.300Z,21.39
2023-02-07T12:29:26.084Z,21.40
2023-02-07T12:30:52.040Z,21.40
2023-02-07T12:32:18.489Z,21.40
2023-02-07T12:33:46.468Z,21.46
2023-02-07T12:35:20.118Z,21.44
2023-02-07T12:36:46.279Z,21.41
2023-02-07T12:38:16.127Z,21.37
2023-02-07T12:39:43.103Z,21.40
2023-02-07T12:41:13.647Z,21.39
2023-02-07T12:42:40.538Z,21.40
2023-02-07T12:44:10.886Z,21.37
2023-02-07T12:45:49.201Z,21.38
2023-02-07T12:47:23.219Z,21.36
2023-02-07T12:49:04.014Z,21.38
2023-02-07T12:50:49.087Z,21.35
2023-02-07T12:52:25.079Z,21.42
2023-02-07T12:54:03.096Z,21.42
2023-02-07T12:55:38.023Z,21.37
2023-02-07T12:57:09.042Z,21.38
2023-02-07T12:58:42.232Z,21.39
2023-02-07T13:00:11.394Z,21.33
2023-02-07T13:01:39.858Z,21.34
2023-02-07T13:03:18.971Z,21.32
2023-02-07T13:05:05.925Z,21.33
2023-02-07T13:06:35.888Z,21.32
2023-02-07T13:08:07.451Z,21.31
2023-02-07T13:09:38.587Z,21.28
2023-02-07T13:11:12.973Z,21.29
2023-02-07T13:12:39.689Z,21.23
2023-02-07T13:14:15.244Z,21.25
2023-02-07T13:15:45.030Z,21.25
2023-02-07T13:17:26.770Z,21.11
2023-02-07T13:18:56.559Z,21.22
2023-02-07T13:20:33.676Z,21.18
2023-02-07T13:22:02.320Z,21.19
2023-02-07T13:23:30.490Z,21.26
2023-02-07T13:24:52.976Z,21.20
2023-02-07T13:26:17.851Z,21.25
2023-02-07T13:27:40.859Z,21.25
2023-02-07T13:29:10.732Z,21.11
2023-02-07T13:30:34.860Z,21.18
2023-02-07T13:32:02.691Z,21.15
2023-02-07T13:33:30.628Z,21.14
2023-02-07T13:34:58.749Z,21.15
2023-02-07T13:36:35.635Z,21.10
2023-02-07T13:38:07.863Z,21.21
2023-02-07T13:39:45.888Z,21.18
2023-02-07T13:41:15.795Z,21.11
2023-02-07T13:42:46.468Z,21.17
2023-02-07T13:44:16.806Z,21.16
2023-02-07T13:45:50.684Z,21.11
2023-02-07T13:47:36.710Z,21.11
2023-02-07T13:49:07.977Z,21.10
2023-02-07T13:50:41.696Z,21.07
2023-02-07T13:52:10.896Z,21.07
2023-02-07T13:53:46.254Z,21.07
2023-02-07T13:55:22.354Z,21.04
2023-02-07T13:56:56.320Z,20.89
2023-02-07T13:58:47.570Z,20.98
2023-02-07T14:00:18.445Z,20.89
2023-02-07T14:01:51.614Z,20.91
2023-02-07T14:03:20.932Z,20.84
2023-02-07T14:04:50.753Z,20.87
2023-02-07T14:06:22.186Z,20.86
2023-02-07T14:07:52.739Z,20.83
2023-02-07T14:09:24.164Z,20.83
2023-02-07T14:10:47.906Z,20.83
2023-02-07T14:12:19.409Z,20.83
2023-02-07T14:13:40.941Z,20.85
2023-02-07T14:15:34.789Z,20.86
2023-02-07T14:16:57.636Z,20.78
2023-02-07T14:18:38.026Z,20.81
2023-02-07T14:20:05.328Z,20.75
2023-02-07T14:21:40.109Z,20.71
2023-02-07T14:23:14.770Z,20.67
2023-02-07T14:24:49.706Z,20.63
2023-02-07T14:26:40.624Z,20.65
2023-02-07T14:28:29.127Z,20.65
2023-02-07T14:29:55.804Z,20.59
2023-02-07T14:31:23.191Z,20.60
2023-02-07T14:33:00.780Z,20.56
2023-02-07T14:34:23.618Z,20.59
2023-02-07T14:36:03.683Z,20.59
2023-02-07T14:37:39.164Z,20.58
2023-02-07T14:39:06.468Z,20.56
2023-02-07T14:40:36.356Z,20.56
2023-02-07T14:42:11.053Z,20.57
2023-02-07T14:43:43.351Z,20.52
2023-02-07T14:45:04.866Z,20.52
2023-02-07T14:46:28.774Z,20.51
2023-02-07T14:47:51.527Z,20.49
2023-02-07T14:49:21.509Z,20.48
2023-02-07T14:50:52.706Z,20.41
2023-02-07T14:52:21.221Z,20.39
2023-02-07T14:53:44.219Z,20.42
2023-02-07T14:55:14.473Z,20.36
2023-02-07T14:56:51.456Z,20.34
2023-02-07T14:58:25.139Z,20.26
2023-02-07T14:59:54.373Z,20.25
2023-02-07T15:01:18.173Z,20.25
2023-02-07T15:02:41.323Z,20.15
2023-02-07T15:04:07.134Z,20.14
2023-02-07T15:05:31.551Z,20.11
2023-02-07T15:06:53.070Z,20.10
2023-02-07T15:08:18.253Z,20.02
2023-02-07T15:09:42.397Z,20.00
2023-02-07T15:11:04.710Z,20.00
2023-02-07T15:12:28.622Z,19.97
2023-02-07T15:13:50.252Z,19.96
2023-02-07T15:15:18.470Z,19.90
2023-02-07T15:16:42.315Z,19.86
2023-02-07T15:18:12.391Z,19.81
2023-02-07T15:19:39.517Z,19.79
2023-02-07T15:21:03.343Z,19.79
2023-02-07T15:22:29.686Z,19.75
2023-02-07T15:23:57.339Z,19.73
2023-02-07T15:25:22.034Z,19.70
2023-02-07T15:26:48.519Z,19.66
2023-02-07T15:28:27.479Z,19.66
2023-02-07T15:29:55.453Z,19.63
2023-02-07T15:31:17.121Z,19.54
2023-02-07T15:32:43.558Z,19.59
2023-02-07T15:34:06.758Z,19.54
2023-02-07T15:35:36.039Z,19.55
2023-02-07T15:36:58.544Z,19.50
2023-02-07T15:38:23.416Z,19.48
2023-02-07T15:39:44.873Z,19.47
2023-02-07T15:41:08.441Z,19.42
2023-02-07T15:42:29.288Z,19.46
2023-02-07T15:43:58.895Z,19.35
2023-02-07T15:45:24.982Z,19.37
2023-02-07T15:46:47.696Z,19.31
2023-02-07T15:48:18.719Z,19.33
2023-02-07T15:49:41.752Z,19.27
2023-02-07T15:51:05.238Z,19.27
2023-02-07T15:52:32.163Z,19.26
2023-02-07T15:53:57.843Z,19.26
2023-02-07T15:55:26.601Z,19.20
2023-02-07T15:56:52.082Z,19.19
2023-02-07T15:58:24.727Z,19.13
2023-02-07T15:59:52.015Z,19.15
2023-02-07T16:01:22.230Z,19.14
2023-02-07T16:02:46.122Z,19.14
2023-02-07T16:04:08.312Z,19.10
2023-02-07T16:05:31.980Z,19.12
2023-02-07T16:06:59.019Z,19.07
2023-02-07T16:08:30.926Z,19.09
2023-02-07T16:09:52.227Z,19.09
2023-02-07T16:11:33.124Z,19.09
2023-02-07T16:13:00.397Z,19.10
2023-02-07T16:14:23.898Z,19.12
2023-02-07T16:15:56.461Z,19.11
2023-02-07T16:17:22.392Z,19.11
2023-02-07T16:18:45.795Z,19.09
2023-02-07T16:20:14.069Z,19.12
2023-02-07T16:21:37.715Z,19.17
2023-02-07T16:23:01.758Z,19.16
2023-02-07T16:24:24.691Z,19.14
2023-02-07T16:25:45.865Z,19.13
2023-02-07T16:27:15.935Z,19.16
2023-02-07T16:28:37.376Z,19.15
2023-02-07T16:29:59.486Z,19.16
2023-02-07T16:31:23.750Z,19.13
2023-02-07T16:32:44.922Z,19.15
2023-02-07T16:34:06.293Z,19.20
2023-02-07T16:35:30.473Z,19.20
2023-02-07T16:36:53.340Z,19.14
2023-02-07T16:38:16.942Z,19.15
2023-02-07T16:39:40.950Z,19.17
2023-02-07T16:41:05.303Z,19.16
2023-02-07T16:42:26.622Z,19.17
2023-02-07T16:43:50.213Z,19.18
2023-02-07T16:45:19.485Z,19.19
2023-02-07T16:46:43.514Z,19.15
2023-02-07T16:48:14.507Z,19.14
2023-02-07T16:49:38.209Z,19.18
2023-02-07T16:50:59.634Z,19.19
2023-02-07T16:52:20.447Z,19.16
2023-02-07T16:53:41.314Z,19.17
2023-02-07T16:55:02.364Z,19.14
2023-02-07T16:56:27.247Z,19.20
2023-02-07T16:57:48.813Z,19.19
2023-02-07T16:59:12.701Z,19.19
2023-02-07T17:00:33.859Z,19.16
2023-02-07T17:01:57.889Z,19.15
2023-02-07T17:03:19.412Z,19.17
2023-02-07T17:04:40.734Z,19.13
2023-02-07T17:06:04.758Z,19.09
2023-02-07T17:07:25.918Z,19.16
2023-02-07T17:08:48.266Z,19.11
2023-02-07T17:10:21.178Z,19.12
2023-02-07T17:11:42.447Z,19.06
2023-02-07T17:13:03.925Z,19.08
2023-02-07T17:14:24.796Z,19.10
2023-02-07T17:15:46.229Z,19.10
2023-02-07T17:17:09.670Z,19.08
2023-02-07T17:18:30.447Z,19.09
2023-02-07T17:19:51.288Z,19.12
2023-02-07T17:21:12.682Z,19.11
2023-02-07T17:22:33.620Z,19.07
2023-02-07T17:23:54.901Z,19.05
2023-02-07T17:25:20.926Z,19.05
2023-02-07T17:26:47.317Z,18.99
2023-02-07T17:28:13.002Z,19.07
2023-02-07T17:29:34.525Z,19.09
2023-02-07T17:30:55.379Z,19.13
2023-02-07T17:32:21.197Z,19.18
2023-02-07T17:33:42.542Z,19.13
2023-02-07T17:35:03.882Z,19.10
2023-02-07T17:36:27.556Z,19.08
2023-02-07T17:37:49.623Z,19.07
2023-02-07T17:39:12.546Z,19.12
2023-02-07T17:40:38.770Z,19.11
2023-02-07T17:42:00.208Z,19.05
2023-02-07T17:43:21.609Z,19.06
2023-02-07T17:44:42.634Z,19.07
2023-02-07T17:46:17.597Z,19.10
2023-02-07T17:47:43.474Z,19.07
2023-02-07T17:49:13.626Z,19.08
2023-02-07T17:50:39.595Z,19.07
2023-02-07T17:52:00.945Z,19.05
2023-02-07T17:53:26.554Z,19.09
2023-02-07T17:54:47.956Z,19.04
2023-02-07T17:56:19.938Z,19.12
2023-02-07T17:57:41.425Z,19.10
2023-02-07T17:59:06.387Z,19.07
2023-02-07T18:00:29.337Z,19.06
2023-02-07T18:01:51.005Z,19.02
2023-02-07T18:03:14.849Z,19.07
2023-02-07T18:04:35.966Z,19.01
2023-02-07T18:05:56.786Z,19.04
2023-02-07T18:07:17.865Z,19.01
2023-02-07T18:08:42.564Z,19.02
2023-02-07T18:10:04.200Z,19.01
2023-02-07T18:11:28.686Z,19.00
2023-02-07T18:12:50.333Z,19.02
2023-02-07T18:14:10.888Z,19.06
2023-02-07T18:15:33.085Z,19.07
2023-02-07T18:16:56.831Z,19.02
2023-02-07T18:18:20.861Z,18.94
2023-02-07T18:19:42.199Z,18.98
2023-02-07T18:21:04.234Z,19.02
2023-02-07T18:22:25.277Z,19.07
2023-02-07T18:23:46.279Z,19.08